sensor_id;sensor_type;location;lat;lon;timestamp;pressure;altitude;pressure_sealevel;temperature;humidity
44309;BME280;30022;55.846;37.340;2023-04-08T00:01:12;46576.72;;;-143.51;45.53
44309;BME280;30022;55.846;37.340;2023-04-08T00:03:38;46566.84;;;-143.51;45.58
44309;BME280;30022;55.846;37.340;2023-04-08T00:06:03;46560.91;;;-143.51;45.68
44309;BME280;30022;55.846;37.340;2023-04-08T00:08:29;46555.00;;;-143.51;45.71
44309;BME280;30022;55.846;37.340;2023-04-08T00:10:55;46555.00;;;-143.51;45.75
44309;BME280;30022;55.846;37.340;2023-04-08T00:13:20;46566.84;;;-143.51;46.02
44309;BME280;30022;55.846;37.340;2023-04-08T00:15:46;46547.09;;;-143.51;46.00
44309;BME280;30022;55.846;37.340;2023-04-08T00:18:13;46580.66;;;-143.51;46.00
44309;BME280;30022;55.846;37.340;2023-04-08T00:20:39;46549.06;;;-143.51;46.05
44309;BME280;30022;55.846;37.340;2023-04-08T00:23:05;46555.00;;;-143.51;46.15
44309;BME280;30022;55.846;37.340;2023-04-08T00:25:31;46547.09;;;-143.51;46.26
44309;BME280;30022;55.846;37.340;2023-04-08T00:27:56;46566.84;;;-143.51;46.33
44309;BME280;30022;55.846;37.340;2023-04-08T00:30:22;46549.06;;;-143.51;46.38
44309;BME280;30022;55.846;37.340;2023-04-08T00:32:48;46556.97;;;-143.51;46.46
44309;BME280;30022;55.846;37.340;2023-04-08T00:35:14;46570.78;;;-143.51;46.56
44309;BME280;30022;55.846;37.340;2023-04-08T00:37:39;46562.91;;;-143.51;46.65
44309;BME280;30022;55.846;37.340;2023-04-08T00:40:05;46545.13;;;-143.51;46.59
44309;BME280;30022;55.846;37.340;2023-04-08T00:42:31;46553.03;;;-143.51;46.82
44309;BME280;30022;55.846;37.340;2023-04-08T00:44:57;46551.06;;;-143.51;46.88
44309;BME280;30022;55.846;37.340;2023-04-08T00:47:22;46525.38;;;-143.51;47.06
44309;BME280;30022;55.846;37.340;2023-04-08T00:49:48;46555.00;;;-143.51;47.13
44309;BME280;30022;55.846;37.340;2023-04-08T00:52:13;46566.84;;;-143.51;47.37
44309;BME280;30022;55.846;37.340;2023-04-08T00:54:40;46560.91;;;-143.51;47.42
44309;BME280;30022;55.846;37.340;2023-04-08T00:57:05;46558.94;;;-143.51;47.54
44309;BME280;30022;55.846;37.340;2023-04-08T00:59:32;46549.06;;;-143.51;47.63
44309;BME280;30022;55.846;37.340;2023-04-08T01:07:17;46533.28;;;-143.51;48.26
44309;BME280;30022;55.846;37.340;2023-04-08T01:09:43;46549.06;;;-143.51;48.38
44309;BME280;30022;55.846;37.340;2023-04-08T01:12:09;46558.94;;;-143.51;48.53
44309;BME280;30022;55.846;37.340;2023-04-08T01:14:41;46551.06;;;-143.51;48.44
44309;BME280;30022;55.846;37.340;2023-04-08T01:17:08;46527.34;;;-143.51;48.82
44309;BME280;30022;55.846;37.340;2023-04-08T01:19:36;46543.16;;;-143.51;48.90
44309;BME280;30022;55.846;37.340;2023-04-08T01:22:24;46549.06;;;-143.51;49.06
44309;BME280;30022;55.846;37.340;2023-04-08T01:24:54;46566.84;;;-143.51;49.25
44309;BME280;30022;55.846;37.340;2023-04-08T01:27:22;46568.81;;;-143.51;49.35
44309;BME280;30022;55.846;37.340;2023-04-08T01:29:48;46560.91;;;-143.51;49.56
44309;BME280;30022;55.846;37.340;2023-04-08T01:32:14;46558.94;;;-143.51;49.63
44309;BME280;30022;55.846;37.340;2023-04-08T01:34:40;46574.75;;;-143.51;49.89
44309;BME280;30022;55.846;37.340;2023-04-08T01:37:07;46543.16;;;-143.51;49.77
44309;BME280;30022;55.846;37.340;2023-04-08T01:39:33;46551.06;;;-143.51;50.26
44309;BME280;30022;55.846;37.340;2023-04-08T01:41:59;46570.78;;;-143.51;50.63
44309;BME280;30022;55.846;37.340;2023-04-08T01:44:26;46545.13;;;-143.51;50.94
44309;BME280;30022;55.846;37.340;2023-04-08T01:46:52;46547.09;;;-143.51;50.96
44309;BME280;30022;55.846;37.340;2023-04-08T01:49:19;46556.97;;;-143.51;51.19
44309;BME280;30022;55.846;37.340;2023-04-08T01:51:46;46558.94;;;-143.51;51.04
44309;BME280;30022;55.846;37.340;2023-04-08T01:54:12;46556.97;;;-143.51;51.52
44309;BME280;30022;55.846;37.340;2023-04-08T01:56:40;46562.91;;;-143.51;51.61
44309;BME280;30022;55.846;37.340;2023-04-08T01:59:08;46539.19;;;-143.51;51.60
44309;BME280;30022;55.846;37.340;2023-04-08T02:01:35;46555.00;;;-143.51;51.75
44309;BME280;30022;55.846;37.340;2023-04-08T02:04:01;46535.25;;;-143.51;51.57
44309;BME280;30022;55.846;37.340;2023-04-08T02:06:27;46535.25;;;-143.51;51.97
44309;BME280;30022;55.846;37.340;2023-04-08T02:08:54;46547.09;;;-143.51;52.29
44309;BME280;30022;55.846;37.340;2023-04-08T02:11:20;46564.88;;;-143.51;52.46
44309;BME280;30022;55.846;37.340;2023-04-08T02:13:45;46555.00;;;-143.51;52.49
44309;BME280;30022;55.846;37.340;2023-04-08T02:19:29;46551.06;;;-143.51;52.91
44309;BME280;30022;55.846;37.340;2023-04-08T02:22:00;46531.31;;;-143.51;52.73
44309;BME280;30022;55.846;37.340;2023-04-08T02:24:27;46553.03;;;-143.51;53.02
44309;BME280;30022;55.846;37.340;2023-04-08T02:26:54;46547.09;;;-143.51;52.87
44309;BME280;30022;55.846;37.340;2023-04-08T02:29:23;46547.09;;;-143.51;52.73
44309;BME280;30022;55.846;37.340;2023-04-08T02:31:51;46529.31;;;-143.51;53.25
44309;BME280;30022;55.846;37.340;2023-04-08T02:34:18;46545.13;;;-143.51;53.07
44309;BME280;30022;55.846;37.340;2023-04-08T02:36:46;46564.88;;;-143.51;53.27
44309;BME280;30022;55.846;37.340;2023-04-08T02:39:12;46545.13;;;-143.51;53.22
44309;BME280;30022;55.846;37.340;2023-04-08T02:41:38;46535.25;;;-143.51;53.68
44309;BME280;30022;55.846;37.340;2023-04-08T02:44:03;46545.13;;;-143.51;53.77
44309;BME280;30022;55.846;37.340;2023-04-08T02:46:29;46547.09;;;-143.51;53.58
44309;BME280;30022;55.846;37.340;2023-04-08T02:48:54;46556.97;;;-143.51;53.58
44309;BME280;30022;55.846;37.340;2023-04-08T02:51:20;46519.44;;;-143.51;53.66
44309;BME280;30022;55.846;37.340;2023-04-08T02:53:46;46523.41;;;-143.51;53.86
44309;BME280;30022;55.846;37.340;2023-04-08T02:56:11;46551.06;;;-143.51;54.01
44309;BME280;30022;55.846;37.340;2023-04-08T02:58:37;46547.09;;;-143.51;53.90
44309;BME280;30022;55.846;37.340;2023-04-08T03:01:03;46562.91;;;-143.51;54.12
44309;BME280;30022;55.846;37.340;2023-04-08T03:03:29;46549.06;;;-143.51;54.15
44309;BME280;30022;55.846;37.340;2023-04-08T03:05:55;46541.19;;;-143.51;54.44
44309;BME280;30022;55.846;37.340;2023-04-08T03:08:21;46533.28;;;-143.51;54.26
44309;BME280;30022;55.846;37.340;2023-04-08T03:10:47;46555.00;;;-143.51;54.28
44309;BME280;30022;55.846;37.340;2023-04-08T03:13:13;46533.28;;;-143.51;54.58
44309;BME280;30022;55.846;37.340;2023-04-08T03:15:39;46553.03;;;-143.51;54.46
44309;BME280;30022;55.846;37.340;2023-04-08T03:18:05;46527.34;;;-143.51;54.79
44309;BME280;30022;55.846;37.340;2023-04-08T03:20:30;46525.38;;;-143.51;54.90
44309;BME280;30022;55.846;37.340;2023-04-08T03:22:56;46558.94;;;-143.51;54.74
44309;BME280;30022;55.846;37.340;2023-04-08T03:25:25;46539.19;;;-143.51;55.07
44309;BME280;30022;55.846;37.340;2023-04-08T03:27:50;46527.34;;;-143.51;54.92
44309;BME280;30022;55.846;37.340;2023-04-08T03:30:16;46547.09;;;-143.51;54.95
44309;BME280;30022;55.846;37.340;2023-04-08T03:32:42;46566.84;;;-143.51;55.14
44309;BME280;30022;55.846;37.340;2023-04-08T03:35:07;46562.91;;;-143.51;55.31
44309;BME280;30022;55.846;37.340;2023-04-08T03:37:33;46537.22;;;-143.51;55.27
44309;BME280;30022;55.846;37.340;2023-04-08T03:39:59;46549.06;;;-143.51;55.35
44309;BME280;30022;55.846;37.340;2023-04-08T03:42:24;46566.84;;;-143.51;55.04
44309;BME280;30022;55.846;37.340;2023-04-08T03:44:50;46568.81;;;-143.51;55.07
44309;BME280;30022;55.846;37.340;2023-04-08T03:47:16;46527.34;;;-143.51;55.29
44309;BME280;30022;55.846;37.340;2023-04-08T03:49:41;46545.13;;;-143.51;55.24
44309;BME280;30022;55.846;37.340;2023-04-08T03:52:07;46551.06;;;-143.51;55.33
44309;BME280;30022;55.846;37.340;2023-04-08T03:54:32;46558.94;;;-143.51;55.60
44309;BME280;30022;55.846;37.340;2023-04-08T03:56:58;46558.94;;;-143.51;55.48
44309;BME280;30022;55.846;37.340;2023-04-08T03:59:24;46549.06;;;-143.51;55.41
44309;BME280;30022;55.846;37.340;2023-04-08T04:01:50;46533.28;;;-143.51;55.54
44309;BME280;30022;55.846;37.340;2023-04-08T04:04:16;46523.41;;;-143.51;55.38
44309;BME280;30022;55.846;37.340;2023-04-08T04:06:42;46555.00;;;-143.51;55.37
44309;BME280;30022;55.846;37.340;2023-04-08T04:09:07;46547.09;;;-143.51;55.25
44309;BME280;30022;55.846;37.340;2023-04-08T04:11:33;46533.28;;;-143.51;55.43
44309;BME280;30022;55.846;37.340;2023-04-08T04:13:59;46531.31;;;-143.51;55.52
44309;BME280;30022;55.846;37.340;2023-04-08T04:16:25;46566.84;;;-143.51;55.50
44309;BME280;30022;55.846;37.340;2023-04-08T04:18:51;46539.19;;;-143.51;55.47
44309;BME280;30022;55.846;37.340;2023-04-08T04:21:17;46562.91;;;-143.51;55.47
44309;BME280;30022;55.846;37.340;2023-04-08T04:23:42;46562.91;;;-143.51;55.59
44309;BME280;30022;55.846;37.340;2023-04-08T04:26:08;46547.09;;;-143.51;55.58
44309;BME280;30022;55.846;37.340;2023-04-08T04:28:34;46547.09;;;-143.51;55.57
44309;BME280;30022;55.846;37.340;2023-04-08T04:31:00;46553.03;;;-143.51;55.47
44309;BME280;30022;55.846;37.340;2023-04-08T04:33:26;46555.00;;;-143.51;55.53
44309;BME280;30022;55.846;37.340;2023-04-08T04:35:52;46564.88;;;-143.51;55.74
44309;BME280;30022;55.846;37.340;2023-04-08T04:38:17;46545.13;;;-143.51;55.77
44309;BME280;30022;55.846;37.340;2023-04-08T04:40:43;46560.91;;;-143.51;55.68
44309;BME280;30022;55.846;37.340;2023-04-08T04:43:09;46543.16;;;-143.51;55.76
44309;BME280;30022;55.846;37.340;2023-04-08T04:45:35;46558.94;;;-143.51;55.91
44309;BME280;30022;55.846;37.340;2023-04-08T04:48:00;46564.88;;;-143.51;55.84
44309;BME280;30022;55.846;37.340;2023-04-08T04:50:27;46574.75;;;-143.51;55.92
44309;BME280;30022;55.846;37.340;2023-04-08T04:52:53;46556.97;;;-143.51;55.74
44309;BME280;30022;55.846;37.340;2023-04-08T04:55:19;46531.31;;;-143.51;56.01
44309;BME280;30022;55.846;37.340;2023-04-08T04:57:46;46572.78;;;-143.51;55.99
44309;BME280;30022;55.846;37.340;2023-04-08T05:00:12;46541.19;;;-143.51;55.88
44309;BME280;30022;55.846;37.340;2023-04-08T05:02:38;46566.84;;;-143.51;56.01
44309;BME280;30022;55.846;37.340;2023-04-08T05:05:03;46556.97;;;-143.51;55.93
44309;BME280;30022;55.846;37.340;2023-04-08T05:07:29;46562.91;;;-143.51;55.81
44309;BME280;30022;55.846;37.340;2023-04-08T05:09:55;46566.84;;;-143.51;56.00
44309;BME280;30022;55.846;37.340;2023-04-08T05:12:20;46556.97;;;-143.51;56.13
44309;BME280;30022;55.846;37.340;2023-04-08T05:14:46;46566.84;;;-143.51;55.84
44309;BME280;30022;55.846;37.340;2023-04-08T05:17:11;46555.00;;;-143.51;56.03
44309;BME280;30022;55.846;37.340;2023-04-08T05:19:37;46590.53;;;-143.51;56.40
44309;BME280;30022;55.846;37.340;2023-04-08T05:22:03;46564.88;;;-143.51;56.16
44309;BME280;30022;55.846;37.340;2023-04-08T05:24:28;46533.28;;;-143.51;56.02
44309;BME280;30022;55.846;37.340;2023-04-08T05:26:54;46547.09;;;-143.51;56.23
44309;BME280;30022;55.846;37.340;2023-04-08T05:29:22;46594.50;;;-143.51;56.33
44309;BME280;30022;55.846;37.340;2023-04-08T05:31:47;46574.75;;;-143.51;56.34
44309;BME280;30022;55.846;37.340;2023-04-08T05:34:13;46592.53;;;-143.51;56.36
44309;BME280;30022;55.846;37.340;2023-04-08T05:36:40;46580.66;;;-143.51;56.08
44309;BME280;30022;55.846;37.340;2023-04-08T05:39:06;46553.03;;;-143.51;55.83
44309;BME280;30022;55.846;37.340;2023-04-08T05:41:32;46592.53;;;-143.51;55.89
44309;BME280;30022;55.846;37.340;2023-04-08T05:43:57;46547.09;;;-143.51;55.92
44309;BME280;30022;55.846;37.340;2023-04-08T05:46:23;46580.66;;;-143.51;56.07
44309;BME280;30022;55.846;37.340;2023-04-08T05:48:48;46555.00;;;-143.51;56.27
44309;BME280;30022;55.846;37.340;2023-04-08T05:51:14;46564.88;;;-143.51;55.94
44309;BME280;30022;55.846;37.340;2023-04-08T05:53:43;46543.16;;;-143.51;56.15
44309;BME280;30022;55.846;37.340;2023-04-08T05:56:09;46574.75;;;-143.51;55.74
44309;BME280;30022;55.846;37.340;2023-04-08T05:58:34;46584.63;;;-143.51;56.20
44309;BME280;30022;55.846;37.340;2023-04-08T06:01:00;46582.66;;;-143.51;55.83
44309;BME280;30022;55.846;37.340;2023-04-08T06:03:26;46584.63;;;-143.51;55.95
44309;BME280;30022;55.846;37.340;2023-04-08T06:05:51;46566.84;;;-143.51;56.25
44309;BME280;30022;55.846;37.340;2023-04-08T06:08:17;46580.66;;;-143.51;56.42
44309;BME280;30022;55.846;37.340;2023-04-08T06:10:49;46584.63;;;-143.51;56.12
44309;BME280;30022;55.846;37.340;2023-04-08T06:13:15;46604.38;;;-143.51;55.99
44309;BME280;30022;55.846;37.340;2023-04-08T06:15:41;46602.41;;;-143.51;55.46
44309;BME280;30022;55.846;37.340;2023-04-08T06:18:06;46584.63;;;-143.51;55.73
44309;BME280;30022;55.846;37.340;2023-04-08T06:20:32;46582.66;;;-143.51;56.21
44309;BME280;30022;55.846;37.340;2023-04-08T06:22:58;46568.81;;;-143.51;56.49
44309;BME280;30022;55.846;37.340;2023-04-08T06:25:23;46570.78;;;-143.51;56.26
44309;BME280;30022;55.846;37.340;2023-04-08T06:27:49;46574.75;;;-143.51;56.56
44309;BME280;30022;55.846;37.340;2023-04-08T06:30:14;46594.50;;;-143.51;55.83
44309;BME280;30022;55.846;37.340;2023-04-08T06:32:41;46584.63;;;-143.51;56.03
44309;BME280;30022;55.846;37.340;2023-04-08T06:35:06;46600.41;;;-143.51;56.32
44309;BME280;30022;55.846;37.340;2023-04-08T06:37:32;46574.75;;;-143.51;56.42
44309;BME280;30022;55.846;37.340;2023-04-08T06:40:03;46570.78;;;-143.51;55.66
44309;BME280;30022;55.846;37.340;2023-04-08T06:42:29;46610.28;;;-143.51;55.46
44309;BME280;30022;55.846;37.340;2023-04-08T06:45:07;46598.44;;;-143.51;55.52
44309;BME280;30022;55.846;37.340;2023-04-08T06:47:33;46590.53;;;-143.51;55.53
44309;BME280;30022;55.846;37.340;2023-04-08T06:49:58;46590.53;;;-143.51;55.22
44309;BME280;30022;55.846;37.340;2023-04-08T06:52:24;46598.44;;;-143.51;55.25
44309;BME280;30022;55.846;37.340;2023-04-08T06:54:50;46576.72;;;-143.51;55.18
44309;BME280;30022;55.846;37.340;2023-04-08T06:57:16;46570.78;;;-143.51;55.33
44309;BME280;30022;55.846;37.340;2023-04-08T06:59:41;46586.59;;;-143.51;55.66
44309;BME280;30022;55.846;37.340;2023-04-08T07:02:07;46594.50;;;-143.51;55.02
44309;BME280;30022;55.846;37.340;2023-04-08T07:04:33;46570.78;;;-143.51;55.23
44309;BME280;30022;55.846;37.340;2023-04-08T07:06:59;46620.16;;;-143.51;54.87
44309;BME280;30022;55.846;37.340;2023-04-08T07:09:24;46590.53;;;-143.51;55.33
44309;BME280;30022;55.846;37.340;2023-04-08T07:11:50;46622.16;;;-143.51;56.02
44309;BME280;30022;55.846;37.340;2023-04-08T07:14:15;46606.34;;;-143.51;55.94
44309;BME280;30022;55.846;37.340;2023-04-08T07:16:41;46596.47;;;-143.51;55.53
44309;BME280;30022;55.846;37.340;2023-04-08T07:19:07;46610.28;;;-143.51;55.58
44309;BME280;30022;55.846;37.340;2023-04-08T07:21:32;46606.34;;;-143.51;54.63
44309;BME280;30022;55.846;37.340;2023-04-08T07:23:58;46600.41;;;-143.51;54.53
44309;BME280;30022;55.846;37.340;2023-04-08T07:26:23;46592.53;;;-143.51;54.76
44309;BME280;30022;55.846;37.340;2023-04-08T07:28:49;46588.56;;;-143.51;54.04
44309;BME280;30022;55.846;37.340;2023-04-08T07:31:16;46590.53;;;-143.51;53.81
44309;BME280;30022;55.846;37.340;2023-04-08T07:33:43;46592.53;;;-143.51;52.68
44309;BME280;30022;55.846;37.340;2023-04-08T07:36:09;46600.41;;;-143.51;53.01
44309;BME280;30022;55.846;37.340;2023-04-08T07:38:36;46606.34;;;-143.51;52.72
44309;BME280;30022;55.846;37.340;2023-04-08T07:41:02;46596.47;;;-143.51;51.70
44309;BME280;30022;55.846;37.340;2023-04-08T07:43:27;46596.47;;;-143.51;51.39
44309;BME280;30022;55.846;37.340;2023-04-08T07:45:55;46624.13;;;-143.51;51.75
44309;BME280;30022;55.846;37.340;2023-04-08T07:48:24;46618.19;;;-143.51;51.75
44309;BME280;30022;55.846;37.340;2023-04-08T07:50:49;46610.28;;;-143.51;51.90
44309;BME280;30022;55.846;37.340;2023-04-08T07:53:15;46590.53;;;-143.51;51.99
44309;BME280;30022;55.846;37.340;2023-04-08T07:55:41;46645.84;;;-143.51;51.96
44309;BME280;30022;55.846;37.340;2023-04-08T07:58:07;46610.28;;;-143.51;52.26
44309;BME280;30022;55.846;37.340;2023-04-08T08:00:32;46590.53;;;-143.51;52.29
44309;BME280;30022;55.846;37.340;2023-04-08T08:02:58;46624.13;;;-143.51;50.72
44309;BME280;30022;55.846;37.340;2023-04-08T08:05:24;46622.16;;;-143.51;50.83
44309;BME280;30022;55.846;37.340;2023-04-08T08:07:49;46641.88;;;-143.51;51.76
44309;BME280;30022;55.846;37.340;2023-04-08T08:10:15;46618.19;;;-143.51;51.19
44309;BME280;30022;55.846;37.340;2023-04-08T08:12:41;46624.13;;;-143.51;51.33
44309;BME280;30022;55.846;37.340;2023-04-08T08:15:07;46610.28;;;-143.51;50.47
44309;BME280;30022;55.846;37.340;2023-04-08T08:17:33;46610.28;;;-143.51;49.76
44309;BME280;30022;55.846;37.340;2023-04-08T08:19:59;46598.44;;;-143.51;49.67
44309;BME280;30022;55.846;37.340;2023-04-08T08:22:26;46624.13;;;-143.51;49.92
44309;BME280;30022;55.846;37.340;2023-04-08T08:24:55;46626.09;;;-143.51;49.63
44309;BME280;30022;55.846;37.340;2023-04-08T08:27:22;46622.16;;;-143.51;49.05
44309;BME280;30022;55.846;37.340;2023-04-08T08:29:48;46618.19;;;-143.51;49.45
44309;BME280;30022;55.846;37.340;2023-04-08T08:32:13;46606.34;;;-143.51;50.06
44309;BME280;30022;55.846;37.340;2023-04-08T08:34:39;46634.00;;;-143.51;48.02
44309;BME280;30022;55.846;37.340;2023-04-08T08:37:04;46634.00;;;-143.51;48.93
44309;BME280;30022;55.846;37.340;2023-04-08T08:39:30;46628.06;;;-143.51;49.32
44309;BME280;30022;55.846;37.340;2023-04-08T08:41:56;46616.22;;;-143.51;49.28
44309;BME280;30022;55.846;37.340;2023-04-08T08:44:22;46626.09;;;-143.51;48.84
44309;BME280;30022;55.846;37.340;2023-04-08T08:46:48;46606.34;;;-143.51;48.21
44309;BME280;30022;55.846;37.340;2023-04-08T08:49:14;46637.94;;;-143.51;47.06
44309;BME280;30022;55.846;37.340;2023-04-08T08:51:39;46632.03;;;-143.51;48.17
44309;BME280;30022;55.846;37.340;2023-04-08T08:54:07;46634.00;;;-143.51;47.49
44309;BME280;30022;55.846;37.340;2023-04-08T08:56:34;46626.09;;;-143.51;46.43
44309;BME280;30022;55.846;37.340;2023-04-08T08:58:59;46630.03;;;-143.51;47.41
44309;BME280;30022;55.846;37.340;2023-04-08T09:01:28;46630.03;;;-143.51;46.45
44309;BME280;30022;55.846;37.340;2023-04-08T09:06:32;46614.25;;;-143.51;46.81
44309;BME280;30022;55.846;37.340;2023-04-08T09:08:58;46634.00;;;-143.51;47.15
44309;BME280;30022;55.846;37.340;2023-04-08T09:11:24;46637.94;;;-143.51;47.69
44309;BME280;30022;55.846;37.340;2023-04-08T09:13:50;46618.19;;;-143.51;46.83
44309;BME280;30022;55.846;37.340;2023-04-08T09:16:16;46628.06;;;-143.51;45.48
44309;BME280;30022;55.846;37.340;2023-04-08T09:18:43;46641.88;;;-143.51;45.17
44309;BME280;30022;55.846;37.340;2023-04-08T09:21:15;46639.91;;;-143.51;45.22
44309;BME280;30022;55.846;37.340;2023-04-08T09:23:49;46604.38;;;-143.51;45.12
44309;BME280;30022;55.846;37.340;2023-04-08T09:26:22;46624.13;;;-143.51;45.02
44309;BME280;30022;55.846;37.340;2023-04-08T09:29:08;46635.97;;;-143.51;44.74
44309;BME280;30022;55.846;37.340;2023-04-08T09:31:35;46608.31;;;-143.51;43.74
44309;BME280;30022;55.846;37.340;2023-04-08T09:34:10;46630.03;;;-143.51;44.62
44309;BME280;30022;55.846;37.340;2023-04-08T09:36:37;46637.94;;;-143.51;43.57
44309;BME280;30022;55.846;37.340;2023-04-08T09:39:04;46612.28;;;-143.51;44.16
44309;BME280;30022;55.846;37.340;2023-04-08T09:41:32;46649.78;;;-143.51;44.20
44309;BME280;30022;55.846;37.340;2023-04-08T09:43:59;46608.31;;;-143.51;43.64
44309;BME280;30022;55.846;37.340;2023-04-08T09:46:26;46612.28;;;-143.51;43.87
44309;BME280;30022;55.846;37.340;2023-04-08T09:49:06;46626.09;;;-143.51;43.44
44309;BME280;30022;55.846;37.340;2023-04-08T09:51:48;46622.16;;;-143.51;43.28
44309;BME280;30022;55.846;37.340;2023-04-08T09:54:17;46622.16;;;-143.51;43.92
44309;BME280;30022;55.846;37.340;2023-04-08T09:57:04;46614.25;;;-143.51;43.59
44309;BME280;30022;55.846;37.340;2023-04-08T09:59:30;46624.13;;;-143.51;43.84
44309;BME280;30022;55.846;37.340;2023-04-08T10:02:00;46639.91;;;-143.51;43.97
44309;BME280;30022;55.846;37.340;2023-04-08T10:04:27;46637.94;;;-143.51;44.11
44309;BME280;30022;55.846;37.340;2023-04-08T10:06:56;46622.16;;;-143.51;43.54
44309;BME280;30022;55.846;37.340;2023-04-08T10:09:23;46635.97;;;-143.51;44.15
44309;BME280;30022;55.846;37.340;2023-04-08T10:11:49;46630.03;;;-143.51;43.70
44309;BME280;30022;55.846;37.340;2023-04-08T10:14:21;46626.09;;;-143.51;44.10
44309;BME280;30022;55.846;37.340;2023-04-08T10:16:49;46635.97;;;-143.51;43.79
44309;BME280;30022;55.846;37.340;2023-04-08T10:19:35;46626.09;;;-143.51;43.10
44309;BME280;30022;55.846;37.340;2023-04-08T10:25:16;46622.16;;;-143.51;43.44
44309;BME280;30022;55.846;37.340;2023-04-08T10:27:39;46639.91;;;-143.51;43.21
44309;BME280;30022;55.846;37.340;2023-04-08T10:36:00;46661.63;;;-143.51;42.55
44309;BME280;30022;55.846;37.340;2023-04-08T10:38:42;46657.69;;;-143.51;42.76
44309;BME280;30022;55.846;37.340;2023-04-08T10:41:10;46626.09;;;-143.51;42.67
44309;BME280;30022;55.846;37.340;2023-04-08T10:43:45;46653.75;;;-143.51;42.81
44309;BME280;30022;55.846;37.340;2023-04-08T10:46:11;46685.34;;;-143.51;42.54
44309;BME280;30022;55.846;37.340;2023-04-08T10:48:37;46653.75;;;-143.51;42.16
44309;BME280;30022;55.846;37.340;2023-04-08T10:51:06;46616.22;;;-143.51;41.69
44309;BME280;30022;55.846;37.340;2023-04-08T10:53:32;46673.50;;;-143.51;41.96
44309;BME280;30022;55.846;37.340;2023-04-08T10:56:05;46649.78;;;-143.51;42.11
44309;BME280;30022;55.846;37.340;2023-04-08T10:58:32;46622.16;;;-143.51;42.02
44309;BME280;30022;55.846;37.340;2023-04-08T11:01:05;46671.50;;;-143.51;42.13
44309;BME280;30022;55.846;37.340;2023-04-08T11:03:31;46669.53;;;-143.51;42.43
44309;BME280;30022;55.846;37.340;2023-04-08T11:05:58;46657.69;;;-143.51;42.52
44309;BME280;30022;55.846;37.340;2023-04-08T11:08:31;46671.50;;;-143.51;42.44
44309;BME280;30022;55.846;37.340;2023-04-08T11:10:57;46665.59;;;-143.51;42.88
44309;BME280;30022;55.846;37.340;2023-04-08T11:13:23;46669.53;;;-143.51;42.72
44309;BME280;30022;55.846;37.340;2023-04-08T11:15:49;46655.72;;;-143.51;41.97
44309;BME280;30022;55.846;37.340;2023-04-08T11:18:15;46677.44;;;-143.51;41.09
44309;BME280;30022;55.846;37.340;2023-04-08T11:20:42;46655.72;;;-143.51;40.09
44309;BME280;30022;55.846;37.340;2023-04-08T11:23:12;46667.56;;;-143.51;40.10
44309;BME280;30022;55.846;37.340;2023-04-08T11:25:38;46635.97;;;-143.51;39.80
44309;BME280;30022;55.846;37.340;2023-04-08T11:28:04;46649.78;;;-143.51;40.88
44309;BME280;30022;55.846;37.340;2023-04-08T11:30:31;46649.78;;;-143.51;41.37
44309;BME280;30022;55.846;37.340;2023-04-08T11:32:57;46635.97;;;-143.51;41.32
44309;BME280;30022;55.846;37.340;2023-04-08T11:35:27;46653.75;;;-143.51;41.33
44309;BME280;30022;55.846;37.340;2023-04-08T11:37:52;46641.88;;;-143.51;41.00
44309;BME280;30022;55.846;37.340;2023-04-08T11:40:19;46661.63;;;-143.51;40.46
44309;BME280;30022;55.846;37.340;2023-04-08T11:42:45;46634.00;;;-143.51;40.28
44309;BME280;30022;55.846;37.340;2023-04-08T11:45:12;46653.75;;;-143.51;39.68
44309;BME280;30022;55.846;37.340;2023-04-08T11:47:38;46630.03;;;-143.51;39.66
44309;BME280;30022;55.846;37.340;2023-04-08T11:50:04;46635.97;;;-143.51;39.21
44309;BME280;30022;55.846;37.340;2023-04-08T11:52:42;46645.84;;;-143.51;39.29
44309;BME280;30022;55.846;37.340;2023-04-08T11:55:09;46641.88;;;-143.51;39.50
44309;BME280;30022;55.846;37.340;2023-04-08T11:57:36;46649.78;;;-143.51;40.13
44309;BME280;30022;55.846;37.340;2023-04-08T12:00:02;46673.50;;;-143.51;40.10
44309;BME280;30022;55.846;37.340;2023-04-08T12:02:36;46639.91;;;-143.51;40.26
44309;BME280;30022;55.846;37.340;2023-04-08T12:05:01;46665.59;;;-143.51;40.96
44309;BME280;30022;55.846;37.340;2023-04-08T12:07:28;46657.69;;;-143.51;39.97
44309;BME280;30022;55.846;37.340;2023-04-08T12:09:54;46655.72;;;-143.51;40.40
44309;BME280;30022;55.846;37.340;2023-04-08T12:12:19;46651.75;;;-143.51;40.19
44309;BME280;30022;55.846;37.340;2023-04-08T12:14:46;46657.69;;;-143.51;39.92
44309;BME280;30022;55.846;37.340;2023-04-08T12:17:15;46645.84;;;-143.51;40.07
44309;BME280;30022;55.846;37.340;2023-04-08T12:19:41;46661.63;;;-143.51;40.27
44309;BME280;30022;55.846;37.340;2023-04-08T12:22:06;46661.63;;;-143.51;40.54
44309;BME280;30022;55.846;37.340;2023-04-08T12:24:32;46667.56;;;-143.51;40.37
44309;BME280;30022;55.846;37.340;2023-04-08T12:26:57;46685.34;;;-143.51;40.15
44309;BME280;30022;55.846;37.340;2023-04-08T12:29:23;46673.50;;;-143.51;40.10
44309;BME280;30022;55.846;37.340;2023-04-08T12:31:50;46681.38;;;-143.51;39.48
44309;BME280;30022;55.846;37.340;2023-04-08T12:34:17;46671.50;;;-143.51;39.15
44309;BME280;30022;55.846;37.340;2023-04-08T12:36:43;46671.50;;;-143.51;38.89
44309;BME280;30022;55.846;37.340;2023-04-08T12:39:11;46651.75;;;-143.51;38.94
44309;BME280;30022;55.846;37.340;2023-04-08T12:41:36;46677.44;;;-143.51;39.42
44309;BME280;30022;55.846;37.340;2023-04-08T12:44:02;46673.50;;;-143.51;39.27
44309;BME280;30022;55.846;37.340;2023-04-08T12:46:28;46661.63;;;-143.51;39.68
44309;BME280;30022;55.846;37.340;2023-04-08T12:48:54;46661.63;;;-143.51;40.00